sensor_id;sensor_type;location;lat;lon;timestamp;pressure;altitude;pressure_sealevel;temperature
30765;BMP180;494;48.744;10.106;2022-12-29T00:00:18;95347.00;;;8.40
30765;BMP180;494;48.744;10.106;2022-12-29T00:02:47;95424.00;;;8.50
30765;BMP180;494;48.744;10.106;2022-12-29T00:05:16;95214.00;;;8.50
30765;BMP180;494;48.744;10.106;2022-12-29T00:07:46;95069.00;;;7.90
30765;BMP180;494;48.744;10.106;2022-12-29T00:10:14;94682.00;;;7.90
30765;BMP180;494;48.744;10.106;2022-12-29T00:12:43;94956.00;;;8.40
30765;BMP180;494;48.744;10.106;2022-12-29T00:15:28;94728.00;;;6.80
30765;BMP180;494;48.744;10.106;2022-12-29T00:18:07;95074.00;;;8.30
30765;BMP180;494;48.744;10.106;2022-12-29T00:20:37;95320.00;;;8.50
30765;BMP180;494;48.744;10.106;2022-12-29T00:23:25;94648.00;;;7.60
30765;BMP180;494;48.744;10.106;2022-12-29T00:26:14;95333.00;;;8.40
30765;BMP180;494;48.744;10.106;2022-12-29T00:29:00;95227.00;;;8.50
30765;BMP180;494;48.744;10.106;2022-12-29T00:31:46;95145.00;;;8.10
30765;BMP180;494;48.744;10.106;2022-12-29T00:34:44;95371.00;;;8.30
30765;BMP180;494;48.744;10.106;2022-12-29T00:37:30;95258.00;;;7.70
30765;BMP180;494;48.744;10.106;2022-12-29T00:40:14;94617.00;;;8.60
30765;BMP180;494;48.744;10.106;2022-12-29T00:43:00;95373.00;;;8.10
30765;BMP180;494;48.744;10.106;2022-12-29T00:45:46;95143.00;;;8.70
30765;BMP180;494;48.744;10.106;2022-12-29T00:48:14;95323.00;;;8.60
30765;BMP180;494;48.744;10.106;2022-12-29T00:51:03;95264.00;;;8.70
30765;BMP180;494;48.744;10.106;2022-12-29T00:53:31;94300.00;;;7.30
30765;BMP180;494;48.744;10.106;2022-12-29T00:56:01;95378.00;;;8.70
30765;BMP180;494;48.744;10.106;2022-12-29T00:58:30;95186.00;;;8.80
30765;BMP180;494;48.744;10.106;2022-12-29T01:01:03;95402.00;;;8.60
30765;BMP180;494;48.744;10.106;2022-12-29T01:03:33;95140.00;;;8.50
30765;BMP180;494;48.744;10.106;2022-12-29T01:06:05;94979.00;;;8.60
30765;BMP180;494;48.744;10.106;2022-12-29T01:08:34;94851.00;;;8.50
30765;BMP180;494;48.744;10.106;2022-12-29T01:11:07;95243.00;;;8.60
30765;BMP180;494;48.744;10.106;2022-12-29T01:13:35;95206.00;;;7.90
30765;BMP180;494;48.744;10.106;2022-12-29T01:16:06;94427.00;;;7.40
30765;BMP180;494;48.744;10.106;2022-12-29T01:18:34;94636.00;;;8.40
30765;BMP180;494;48.744;10.106;2022-12-29T01:21:05;95385.00;;;7.90
30765;BMP180;494;48.744;10.106;2022-12-29T01:23:34;95321.00;;;8.20
30765;BMP180;494;48.744;10.106;2022-12-29T01:26:11;94838.00;;;8.30
30765;BMP180;494;48.744;10.106;2022-12-29T01:28:40;95349.00;;;8.30
30765;BMP180;494;48.744;10.106;2022-12-29T01:31:10;95041.00;;;8.20
30765;BMP180;494;48.744;10.106;2022-12-29T01:33:41;95343.00;;;8.20
30765;BMP180;494;48.744;10.106;2022-12-29T01:36:12;95306.00;;;8.20
30765;BMP180;494;48.744;10.106;2022-12-29T01:38:42;95367.00;;;7.00
30765;BMP180;494;48.744;10.106;2022-12-29T01:41:15;95172.00;;;8.30
30765;BMP180;494;48.744;10.106;2022-12-29T01:43:47;95301.00;;;8.30
30765;BMP180;494;48.744;10.106;2022-12-29T01:46:23;95307.00;;;8.40
30765;BMP180;494;48.744;10.106;2022-12-29T01:48:59;94386.00;;;7.60
30765;BMP180;494;48.744;10.106;2022-12-29T01:51:34;95355.00;;;8.50
30765;BMP180;494;48.744;10.106;2022-12-29T01:54:09;95028.00;;;8.00
30765;BMP180;494;48.744;10.106;2022-12-29T01:56:40;95230.00;;;7.40
30765;BMP180;494;48.744;10.106;2022-12-29T01:59:14;95267.00;;;7.70
30765;BMP180;494;48.744;10.106;2022-12-29T02:01:44;94990.00;;;7.80
30765;BMP180;494;48.744;10.106;2022-12-29T02:04:13;95073.00;;;7.60
30765;BMP180;494;48.744;10.106;2022-12-29T02:06:50;95102.00;;;7.20
30765;BMP180;494;48.744;10.106;2022-12-29T02:09:20;94293.00;;;8.00
30765;BMP180;494;48.744;10.106;2022-12-29T02:11:52;94534.00;;;8.10
30765;BMP180;494;48.744;10.106;2022-12-29T02:14:21;95310.00;;;8.40
30765;BMP180;494;48.744;10.106;2022-12-29T02:17:07;95406.00;;;8.80
30765;BMP180;494;48.744;10.106;2022-12-29T02:20:24;95170.00;;;8.80
30765;BMP180;494;48.744;10.106;2022-12-29T02:23:24;95392.00;;;8.20
30765;BMP180;494;48.744;10.106;2022-12-29T02:26:27;95287.00;;;7.90
30765;BMP180;494;48.744;10.106;2022-12-29T02:29:32;95366.00;;;8.80
30765;BMP180;494;48.744;10.106;2022-12-29T02:32:13;94988.00;;;9.00
30765;BMP180;494;48.744;10.106;2022-12-29T02:34:55;94050.00;;;9.00
30765;BMP180;494;48.744;10.106;2022-12-29T02:37:30;95064.00;;;9.10
30765;BMP180;494;48.744;10.106;2022-12-29T02:40:18;95173.00;;;9.00
30765;BMP180;494;48.744;10.106;2022-12-29T02:42:59;95293.00;;;9.20
30765;BMP180;494;48.744;10.106;2022-12-29T02:45:38;95176.00;;;9.20
30765;BMP180;494;48.744;10.106;2022-12-29T02:48:19;95154.00;;;7.90
30765;BMP180;494;48.744;10.106;2022-12-29T02:50:54;95284.00;;;9.20
30765;BMP180;494;48.744;10.106;2022-12-29T02:53:28;94911.00;;;8.80
30765;BMP180;494;48.744;10.106;2022-12-29T02:56:14;95272.00;;;9.30
30765;BMP180;494;48.744;10.106;2022-12-29T02:58:44;95072.00;;;8.70
30765;BMP180;494;48.744;10.106;2022-12-29T03:01:33;95298.00;;;9.00
30765;BMP180;494;48.744;10.106;2022-12-29T03:04:40;95153.00;;;9.10
30765;BMP180;494;48.744;10.106;2022-12-29T03:07:23;95127.00;;;8.40
30765;BMP180;494;48.744;10.106;2022-12-29T03:10:05;95256.00;;;9.20
30765;BMP180;494;48.744;10.106;2022-12-29T03:12:47;95371.00;;;9.40
30765;BMP180;494;48.744;10.106;2022-12-29T03:15:43;95262.00;;;8.60
30765;BMP180;494;48.744;10.106;2022-12-29T03:18:41;95305.00;;;9.00
30765;BMP180;494;48.744;10.106;2022-12-29T03:21:22;94537.00;;;7.10
30765;BMP180;494;48.744;10.106;2022-12-29T03:24:15;95235.00;;;9.00
30765;BMP180;494;48.744;10.106;2022-12-29T03:26:46;95172.00;;;9.10
30765;BMP180;494;48.744;10.106;2022-12-29T03:29:18;95141.00;;;9.10
30765;BMP180;494;48.744;10.106;2022-12-29T03:31:48;95225.00;;;8.70
30765;BMP180;494;48.744;10.106;2022-12-29T03:34:20;94881.00;;;9.10
30765;BMP180;494;48.744;10.106;2022-12-29T03:36:55;95308.00;;;9.00
30765;BMP180;494;48.744;10.106;2022-12-29T03:39:26;95248.00;;;9.20
30765;BMP180;494;48.744;10.106;2022-12-29T03:42:01;95169.00;;;9.30
30765;BMP180;494;48.744;10.106;2022-12-29T03:44:36;95017.00;;;9.50
30765;BMP180;494;48.744;10.106;2022-12-29T03:47:07;95294.00;;;9.40
30765;BMP180;494;48.744;10.106;2022-12-29T03:49:36;95025.00;;;9.50
30765;BMP180;494;48.744;10.106;2022-12-29T03:52:06;95227.00;;;7.90
30765;BMP180;494;48.744;10.106;2022-12-29T03:54:34;95009.00;;;7.70
30765;BMP180;494;48.744;10.106;2022-12-29T03:57:03;95247.00;;;9.30
30765;BMP180;494;48.744;10.106;2022-12-29T03:59:31;95129.00;;;9.40
30765;BMP180;494;48.744;10.106;2022-12-29T04:02:00;95291.00;;;8.60
30765;BMP180;494;48.744;10.106;2022-12-29T04:04:29;95208.00;;;9.40
30765;BMP180;494;48.744;10.106;2022-12-29T04:06:59;95236.00;;;9.40
30765;BMP180;494;48.744;10.106;2022-12-29T04:09:29;95036.00;;;8.90
30765;BMP180;494;48.744;10.106;2022-12-29T04:11:58;95243.00;;;9.40
30765;BMP180;494;48.744;10.106;2022-12-29T04:14:26;95174.00;;;9.10
30765;BMP180;494;48.744;10.106;2022-12-29T04:16:55;95248.00;;;9.50
30765;BMP180;494;48.744;10.106;2022-12-29T04:19:23;95281.00;;;9.50
30765;BMP180;494;48.744;10.106;2022-12-29T04:21:52;95087.00;;;8.50
30765;BMP180;494;48.744;10.106;2022-12-29T04:24:20;95245.00;;;9.40
30765;BMP180;494;48.744;10.106;2022-12-29T04:26:50;95235.00;;;9.40
30765;BMP180;494;48.744;10.106;2022-12-29T04:29:19;95096.00;;;9.30
30765;BMP180;494;48.744;10.106;2022-12-29T04:31:47;95275.00;;;8.20
30765;BMP180;494;48.744;10.106;2022-12-29T04:34:16;94856.00;;;7.70
30765;BMP180;494;48.744;10.106;2022-12-29T04:36:44;94990.00;;;9.10
30765;BMP180;494;48.744;10.106;2022-12-29T04:39:13;95130.00;;;9.30
30765;BMP180;494;48.744;10.106;2022-12-29T04:41:42;95293.00;;;9.10
30765;BMP180;494;48.744;10.106;2022-12-29T04:44:12;95139.00;;;9.10
30765;BMP180;494;48.744;10.106;2022-12-29T04:46:40;95180.00;;;9.20
30765;BMP180;494;48.744;10.106;2022-12-29T04:49:09;95216.00;;;9.20
30765;BMP180;494;48.744;10.106;2022-12-29T04:51:37;94700.00;;;9.00
30765;BMP180;494;48.744;10.106;2022-12-29T04:54:06;94418.00;;;8.50
30765;BMP180;494;48.744;10.106;2022-12-29T04:56:36;94906.00;;;8.80
30765;BMP180;494;48.744;10.106;2022-12-29T04:59:05;94999.00;;;7.30
30765;BMP180;494;48.744;10.106;2022-12-29T05:01:35;94666.00;;;8.80
30765;BMP180;494;48.744;10.106;2022-12-29T05:04:04;94457.00;;;8.80
30765;BMP180;494;48.744;10.106;2022-12-29T05:06:32;95169.00;;;8.90
30765;BMP180;494;48.744;10.106;2022-12-29T05:09:01;95238.00;;;8.70
30765;BMP180;494;48.744;10.106;2022-12-29T05:11:29;94832.00;;;7.00
30765;BMP180;494;48.744;10.106;2022-12-29T05:13:58;95063.00;;;8.30
30765;BMP180;494;48.744;10.106;2022-12-29T05:16:26;95001.00;;;8.30
30765;BMP180;494;48.744;10.106;2022-12-29T05:18:56;95228.00;;;8.10
30765;BMP180;494;48.744;10.106;2022-12-29T05:21:25;95137.00;;;8.30
30765;BMP180;494;48.744;10.106;2022-12-29T05:23:54;94974.00;;;7.20
30765;BMP180;494;48.744;10.106;2022-12-29T05:26:22;94927.00;;;7.10
30765;BMP180;494;48.744;10.106;2022-12-29T05:28:51;95209.00;;;8.50
30765;BMP180;494;48.744;10.106;2022-12-29T05:31:19;95239.00;;;8.60
30765;BMP180;494;48.744;10.106;2022-12-29T05:33:48;94973.00;;;8.50
30765;BMP180;494;48.744;10.106;2022-12-29T05:36:18;95247.00;;;8.50
30765;BMP180;494;48.744;10.106;2022-12-29T05:38:47;95006.00;;;8.40
30765;BMP180;494;48.744;10.106;2022-12-29T05:41:16;95128.00;;;8.20
30765;BMP180;494;48.744;10.106;2022-12-29T05:43:44;95256.00;;;8.20
30765;BMP180;494;48.744;10.106;2022-12-29T05:46:13;95259.00;;;8.10
30765;BMP180;494;48.744;10.106;2022-12-29T05:48:41;94988.00;;;6.80
30765;BMP180;494;48.744;10.106;2022-12-29T05:51:10;95143.00;;;7.30
30765;BMP180;494;48.744;10.106;2022-12-29T05:53:40;95269.00;;;7.80
30765;BMP180;494;48.744;10.106;2022-12-29T05:56:08;95100.00;;;6.50
30765;BMP180;494;48.744;10.106;2022-12-29T05:58:37;95135.00;;;5.70
30765;BMP180;494;48.744;10.106;2022-12-29T06:01:05;94762.00;;;7.60
30765;BMP180;494;48.744;10.106;2022-12-29T06:03:34;94966.00;;;7.70
30765;BMP180;494;48.744;10.106;2022-12-29T06:06:03;95255.00;;;7.50
30765;BMP180;494;48.744;10.106;2022-12-29T06:08:32;95278.00;;;7.50
30765;BMP180;494;48.744;10.106;2022-12-29T06:11:02;95159.00;;;7.30
30765;BMP180;494;48.744;10.106;2022-12-29T06:13:31;95344.00;;;6.50
30765;BMP180;494;48.744;10.106;2022-12-29T06:16:00;95084.00;;;7.40
30765;BMP180;494;48.744;10.106;2022-12-29T06:18:29;95266.00;;;7.20
30765;BMP180;494;48.744;10.106;2022-12-29T06:21:00;94909.00;;;7.10
30765;BMP180;494;48.744;10.106;2022-12-29T06:23:29;94595.00;;;7.10
30765;BMP180;494;48.744;10.106;2022-12-29T06:25:57;95272.00;;;7.20
30765;BMP180;494;48.744;10.106;2022-12-29T06:28:27;94988.00;;;6.80
30765;BMP180;494;48.744;10.106;2022-12-29T06:30:56;95174.00;;;7.00
30765;BMP180;494;48.744;10.106;2022-12-29T06:33:25;94647.00;;;7.00
30765;BMP180;494;48.744;10.106;2022-12-29T06:35:53;94562.00;;;6.90
30765;BMP180;494;48.744;10.106;2022-12-29T06:38:22;95242.00;;;7.00
30765;BMP180;494;48.744;10.106;2022-12-29T06:40:50;95255.00;;;6.70
30765;BMP180;494;48.744;10.106;2022-12-29T06:43:19;95271.00;;;6.80
30765;BMP180;494;48.744;10.106;2022-12-29T06:45:49;94937.00;;;6.70
30765;BMP180;494;48.744;10.106;2022-12-29T06:48:17;95074.00;;;6.60
30765;BMP180;494;48.744;10.106;2022-12-29T06:50:46;95069.00;;;6.60
30765;BMP180;494;48.744;10.106;2022-12-29T06:53:14;95344.00;;;6.50
30765;BMP180;494;48.744;10.106;2022-12-29T06:55:43;95293.00;;;6.30
30765;BMP180;494;48.744;10.106;2022-12-29T06:58:11;94926.00;;;6.10
30765;BMP180;494;48.744;10.106;2022-12-29T07:00:40;95006.00;;;5.80
30765;BMP180;494;48.744;10.106;2022-12-29T07:03:10;94628.00;;;6.30
30765;BMP180;494;48.744;10.106;2022-12-29T07:05:38;94925.00;;;6.40
30765;BMP180;494;48.744;10.106;2022-12-29T07:08:07;95242.00;;;6.10
30765;BMP180;494;48.744;10.106;2022-12-29T07:10:36;95062.00;;;6.30
30765;BMP180;494;48.744;10.106;2022-12-29T07:13:04;94968.00;;;6.30
30765;BMP180;494;48.744;10.106;2022-12-29T07:15:36;95265.00;;;6.40
30765;BMP180;494;48.744;10.106;2022-12-29T07:18:04;95150.00;;;5.90
30765;BMP180;494;48.744;10.106;2022-12-29T07:20:34;95259.00;;;6.60
30765;BMP180;494;48.744;10.106;2022-12-29T07:23:03;94847.00;;;6.10
30765;BMP180;494;48.744;10.106;2022-12-29T07:25:31;95236.00;;;6.80
30765;BMP180;494;48.744;10.106;2022-12-29T07:28:02;95297.00;;;6.80
30765;BMP180;494;48.744;10.106;2022-12-29T07:30:31;95295.00;;;6.50
30765;BMP180;494;48.744;10.106;2022-12-29T07:33:00;95265.00;;;6.60
30765;BMP180;494;48.744;10.106;2022-12-29T07:35:28;95243.00;;;4.80
30765;BMP180;494;48.744;10.106;2022-12-29T07:37:58;94937.00;;;6.30
30765;BMP180;494;48.744;10.106;2022-12-29T07:40:26;95277.00;;;6.20
30765;BMP180;494;48.744;10.106;2022-12-29T07:42:55;94991.00;;;6.40
30765;BMP180;494;48.744;10.106;2022-12-29T07:45:23;94994.00;;;6.40
30765;BMP180;494;48.744;10.106;2022-12-29T07:47:52;95276.00;;;6.40
30765;BMP180;494;48.744;10.106;2022-12-29T07:50:20;95190.00;;;6.70
30765;BMP180;494;48.744;10.106;2022-12-29T07:52:49;95121.00;;;6.60
30765;BMP180;494;48.744;10.106;2022-12-29T07:55:19;95272.00;;;6.70
30765;BMP180;494;48.744;10.106;2022-12-29T07:57:47;95328.00;;;6.80
30765;BMP180;494;48.744;10.106;2022-12-29T08:00:16;94965.00;;;6.80
30765;BMP180;494;48.744;10.106;2022-12-29T08:02:45;94959.00;;;6.60
30765;BMP180;494;48.744;10.106;2022-12-29T08:05:14;95305.00;;;6.40
30765;BMP180;494;48.744;10.106;2022-12-29T08:07:43;95320.00;;;5.90
30765;BMP180;494;48.744;10.106;2022-12-29T08:10:13;95281.00;;;6.60
30765;BMP180;494;48.744;10.106;2022-12-29T08:12:44;94816.00;;;6.80
30765;BMP180;494;48.744;10.106;2022-12-29T08:15:12;95289.00;;;7.00
30765;BMP180;494;48.744;10.106;2022-12-29T08:17:41;95084.00;;;6.90
30765;BMP180;494;48.744;10.106;2022-12-29T08:20:10;95055.00;;;6.40
30765;BMP180;494;48.744;10.106;2022-12-29T08:22:39;95190.00;;;7.10
30765;BMP180;494;48.744;10.106;2022-12-29T08:25:08;95291.00;;;7.10
30765;BMP180;494;48.744;10.106;2022-12-29T08:27:37;94773.00;;;7.10
30765;BMP180;494;48.744;10.106;2022-12-29T08:30:09;95293.00;;;7.20
30765;BMP180;494;48.744;10.106;2022-12-29T08:32:38;94988.00;;;7.00
30765;BMP180;494;48.744;10.106;2022-12-29T08:35:07;95299.00;;;7.20
30765;BMP180;494;48.744;10.106;2022-12-29T08:37:36;95302.00;;;7.10
30765;BMP180;494;48.744;10.106;2022-12-29T08:40:06;94883.00;;;7.10
30765;BMP180;494;48.744;10.106;2022-12-29T08:42:35;95006.00;;;6.20
30765;BMP180;494;48.744;10.106;2022-12-29T08:45:05;95293.00;;;6.40
30765;BMP180;494;48.744;10.106;2022-12-29T08:47:35;94921.00;;;6.00
30765;BMP180;494;48.744;10.106;2022-12-29T08:50:05;95188.00;;;8.10
30765;BMP180;494;48.744;10.106;2022-12-29T08:52:33;94829.00;;;7.90
30765;BMP180;494;48.744;10.106;2022-12-29T08:55:02;94970.00;;;8.60
30765;BMP180;494;48.744;10.106;2022-12-29T08:57:30;95284.00;;;8.70
30765;BMP180;494;48.744;10.106;2022-12-29T08:59:59;95142.00;;;8.60
30765;BMP180;494;48.744;10.106;2022-12-29T09:02:28;95073.00;;;9.00
30765;BMP180;494;48.744;10.106;2022-12-29T09:04:58;95212.00;;;9.50
30765;BMP180;494;48.744;10.106;2022-12-29T09:07:27;95273.00;;;10.40
30765;BMP180;494;48.744;10.106;2022-12-29T09:09:57;95285.00;;;10.80
30765;BMP180;494;48.744;10.106;2022-12-29T09:12:27;95411.00;;;11.20
30765;BMP180;494;48.744;10.106;2022-12-29T09:15:03;94589.00;;;10.40
30765;BMP180;494;48.744;10.106;2022-12-29T09:17:32;94753.00;;;11.30
30765;BMP180;494;48.744;10.106;2022-12-29T09:20:18;95268.00;;;11.30
30765;BMP180;494;48.744;10.106;2022-12-29T09:22:47;95276.00;;;11.20
30765;BMP180;494;48.744;10.106;2022-12-29T09:25:16;95283.00;;;11.40
30765;BMP180;494;48.744;10.106;2022-12-29T09:27:45;95149.00;;;11.40
30765;BMP180;494;48.744;10.106;2022-12-29T09:30:14;94906.00;;;11.10
30765;BMP180;494;48.744;10.106;2022-12-29T09:32:43;95265.00;;;11.30
30765;BMP180;494;48.744;10.106;2022-12-29T09:35:18;95262.00;;;11.00
30765;BMP180;494;48.744;10.106;2022-12-29T09:37:46;94814.00;;;11.50
30765;BMP180;494;48.744;10.106;2022-12-29T09:40:26;95153.00;;;11.40
30765;BMP180;494;48.744;10.106;2022-12-29T09:43:22;95139.00;;;11.40
30765;BMP180;494;48.744;10.106;2022-12-29T09:46:01;95269.00;;;11.70
30765;BMP180;494;48.744;10.106;2022-12-29T09:48:37;95131.00;;;11.90
30765;BMP180;494;48.744;10.106;2022-12-29T09:51:15;95132.00;;;11.80
30765;BMP180;494;48.744;10.106;2022-12-29T09:53:50;94988.00;;;11.70
30765;BMP180;494;48.744;10.106;2022-12-29T09:56:22;95186.00;;;11.10
30765;BMP180;494;48.744;10.106;2022-12-29T09:58:58;95154.00;;;12.10
30765;BMP180;494;48.744;10.106;2022-12-29T10:01:33;95284.00;;;12.30
30765;BMP180;494;48.744;10.106;2022-12-29T10:04:05;95281.00;;;12.50
30765;BMP180;494;48.744;10.106;2022-12-29T10:06:45;95224.00;;;12.70
30765;BMP180;494;48.744;10.106;2022-12-29T10:09:47;95004.00;;;13.10
30765;BMP180;494;48.744;10.106;2022-12-29T10:12:27;95268.00;;;12.80
30765;BMP180;494;48.744;10.106;2022-12-29T10:15:11;94676.00;;;12.70
30765;BMP180;494;48.744;10.106;2022-12-29T10:17:53;95268.00;;;12.60
30765;BMP180;494;48.744;10.106;2022-12-29T10:20:31;95299.00;;;12.60
30765;BMP180;494;48.744;10.106;2022-12-29T10:23:22;95196.00;;;12.60
30765;BMP180;494;48.744;10.106;2022-12-29T10:25:55;95266.00;;;11.10
30765;BMP180;494;48.744;10.106;2022-12-29T10:28:36;95314.00;;;12.60
30765;BMP180;494;48.744;10.106;2022-12-29T10:31:14;94977.00;;;12.90
30765;BMP180;494;48.744;10.106;2022-12-29T10:33:51;95197.00;;;11.30
30765;BMP180;494;48.744;10.106;2022-12-29T10:36:30;95261.00;;;12.70
30765;BMP180;494;48.744;10.106;2022-12-29T10:39:14;95075.00;;;12.70
30765;BMP180;494;48.744;10.106;2022-12-29T10:41:50;94948.00;;;12.90
30765;BMP180;494;48.744;10.106;2022-12-29T10:44:30;94784.00;;;12.10
30765;BMP180;494;48.744;10.106;2022-12-29T10:47:09;95125.00;;;11.90
30765;BMP180;494;48.744;10.106;2022-12-29T10:49:42;95305.00;;;12.70
30765;BMP180;494;48.744;10.106;2022-12-29T10:52:13;95152.00;;;12.70
30765;BMP180;494;48.744;10.106;2022-12-29T10:54:49;95021.00;;;13.00
30765;BMP180;494;48.744;10.106;2022-12-29T10:57:26;95289.00;;;12.90
30765;BMP180;494;48.744;10.106;2022-12-29T10:59:55;95154.00;;;12.80
30765;BMP180;494;48.744;10.106;2022-12-29T11:05:51;95021.00;;;12.50
30765;BMP180;494;48.744;10.106;2022-12-29T11:08:25;95277.00;;;12.80
30765;BMP180;494;48.744;10.106;2022-12-29T11:11:02;95307.00;;;12.80
30765;BMP180;494;48.744;10.106;2022-12-29T11:13:34;95305.00;;;12.50
30765;BMP180;494;48.744;10.106;2022-12-29T11:16:05;95276.00;;;12.60
30765;BMP180;494;48.744;10.106;2022-12-29T11:18:37;95293.00;;;12.60
30765;BMP180;494;48.744;10.106;2022-12-29T11:21:26;94633.00;;;11.40
30765;BMP180;494;48.744;10.106;2022-12-29T11:24:00;95255.00;;;12.00
30765;BMP180;494;48.744;10.106;2022-12-29T11:26:32;95130.00;;;12.30
30765;BMP180;494;48.744;10.106;2022-12-29T11:29:25;95219.00;;;12.10
30765;BMP180;494;48.744;10.106;2022-12-29T11:31:56;95074.00;;;12.20
30765;BMP180;494;48.744;10.106;2022-12-29T11:34:31;95250.00;;;12.10
30765;BMP180;494;48.744;10.106;2022-12-29T11:37:04;95306.00;;;12.10
30765;BMP180;494;48.744;10.106;2022-12-29T11:39:39;95154.00;;;12.20
30765;BMP180;494;48.744;10.106;2022-12-29T11:42:16;95255.00;;;12.30
30765;BMP180;494;48.744;10.106;2022-12-29T11:44:48;95267.00;;;11.50
30765;BMP180;494;48.744;10.106;2022-12-29T11:47:29;95184.00;;;12.40
30765;BMP180;494;48.744;10.106;2022-12-29T11:50:02;95259.00;;;12.20
30765;BMP180;494;48.744;10.106;2022-12-29T11:52:35;95044.00;;;12.30
30765;BMP180;494;48.744;10.106;2022-12-29T11:55:18;94956.00;;;12.60
30765;BMP180;494;48.744;10.106;2022-12-29T11:57:52;95149.00;;;12.20
30765;BMP180;494;48.744;10.106;2022-12-29T12:00:24;94979.00;;;12.40
30765;BMP180;494;48.744;10.106;2022-12-29T12:02:58;94390.00;;;12.70
30765;BMP180;494;48.744;10.106;2022-12-29T12:05:37;95243.00;;;12.20
30765;BMP180;494;48.744;10.106;2022-12-29T12:08:13;95061.00;;;12.20
30765;BMP180;494;48.744;10.106;2022-12-29T12:10:54;95254.00;;;12.10
30765;BMP180;494;48.744;10.106;2022-12-29T12:13:30;95183.00;;;11.60
30765;BMP180;494;48.744;10.106;2022-12-29T12:16:08;95251.00;;;11.00
30765;BMP180;494;48.744;10.106;2022-12-29T12:18:45;95088.00;;;12.10
30765;BMP180;494;48.744;10.106;2022-12-29T12:21:25;95126.00;;;12.10
30765;BMP180;494;48.744;10.106;2022-12-29T12:24:10;95129.00;;;11.20
30765;BMP180;494;48.744;10.106;2022-12-29T12:26:59;95244.00;;;12.00
30765;BMP180;494;48.744;10.106;2022-12-29T12:29:39;95237.00;;;12.00
30765;BMP180;494;48.744;10.106;2022-12-29T12:32:17;95243.00;;;12.00
30765;BMP180;494;48.744;10.106;2022-12-29T12:34:49;95238.00;;;12.00
30765;BMP180;494;48.744;10.106;2022-12-29T12:37:51;95237.00;;;11.90
30765;BMP180;494;48.744;10.106;2022-12-29T12:40:44;95227.00;;;11.90
30765;BMP180;494;48.744;10.106;2022-12-29T12:43:41;95237.00;;;11.90
30765;BMP180;494;48.744;10.106;2022-12-29T12:46:52;95241.00;;;11.70
30765;BMP180;494;48.744;10.106;2022-12-29T12:50:02;95238.00;;;11.90
30765;BMP180;494;48.744;10.106;2022-12-29T12:53:07;95030.00;;;11.80
30765;BMP180;494;48.744;10.106;2022-12-29T12:56:10;95133.00;;;11.40
30765;BMP180;494;48.744;10.106;2022-12-29T12:58:52;95230.00;;;11.80
30765;BMP180;494;48.744;10.106;2022-12-29T13:01:38;95090.00;;;11.80
30765;BMP180;494;48.744;10.106;2022-12-29T13:07:32;94996.00;;;11.90
30765;BMP180;494;48.744;10.106;2022-12-29T13:10:36;95184.00;;;11.90
30765;BMP180;494;48.744;10.106;2022-12-29T13:13:47;95222.00;;;12.00
30765;BMP180;494;48.744;10.106;2022-12-29T13:16:34;95082.00;;;11.00
30765;BMP180;494;48.744;10.106;2022-12-29T13:19:11;94593.00;;;12.00
30765;BMP180;494;48.744;10.106;2022-12-29T13:22:04;95201.00;;;11.80
30765;BMP180;494;48.744;10.106;2022-12-29T13:24:50;95299.00;;;11.50
30765;BMP180;494;48.744;10.106;2022-12-29T13:27:32;95167.00;;;11.60
30765;BMP180;494;48.744;10.106;2022-12-29T13:30:10;95035.00;;;11.70
30765;BMP180;494;48.744;10.106;2022-12-29T13:32:55;95288.00;;;11.70
30765;BMP180;494;48.744;10.106;2022-12-29T13:35:50;94831.00;;;10.80
30765;BMP180;494;48.744;10.106;2022-12-29T13:38:27;95130.00;;;11.70
30765;BMP180;494;48.744;10.106;2022-12-29T13:41:02;95136.00;;;11.70
30765;BMP180;494;48.744;10.106;2022-12-29T13:43:38;95257.00;;;11.60
30765;BMP180;494;48.744;10.106;2022-12-29T13:46:12;95252.00;;;11.70
30765;BMP180;494;48.744;10.106;2022-12-29T13:48:50;95244.00;;;11.70
30765;BMP180;494;48.744;10.106;2022-12-29T13:51:21;95240.00;;;11.70
30765;BMP180;494;48.744;10.106;2022-12-29T13:54:16;95308.00;;;11.70
30765;BMP180;494;48.744;10.106;2022-12-29T13:56:54;95175.00;;;11.60
30765;BMP180;494;48.744;10.106;2022-12-29T13:59:36;95244.00;;;11.70
30765;BMP180;494;48.744;10.106;2022-12-29T14:02:25;95313.00;;;11.70
30765;BMP180;494;48.744;10.106;2022-12-29T14:05:02;95240.00;;;11.70
30765;BMP180;494;48.744;10.106;2022-12-29T14:07:37;95242.00;;;11.70
30765;BMP180;494;48.744;10.106;2022-12-29T14:10:27;95062.00;;;11.50
30765;BMP180;494;48.744;10.106;2022-12-29T14:13:03;94986.00;;;11.60
30765;BMP180;494;48.744;10.106;2022-12-29T14:15:37;95231.00;;;11.60
30765;BMP180;494;48.744;10.106;2022-12-29T14:18:15;94665.00;;;11.10
30765;BMP180;494;48.744;10.106;2022-12-29T14:20:54;95230.00;;;11.70
30765;BMP180;494;48.744;10.106;2022-12-29T14:23:37;95263.00;;;11.80
30765;BMP180;494;48.744;10.106;2022-12-29T14:26:32;95190.00;;;11.80
30765;BMP180;494;48.744;10.106;2022-12-29T14:29:43;95224.00;;;11.80
30765;BMP180;494;48.744;10.106;2022-12-29T14:32:36;94970.00;;;11.40
30765;BMP180;494;48.744;10.106;2022-12-29T14:35:49;95224.00;;;11.90
30765;BMP180;494;48.744;10.106;2022-12-29T14:38:28;95286.00;;;11.90
30765;BMP180;494;48.744;10.106;2022-12-29T14:41:30;95253.00;;;11.90
30765;BMP180;494;48.744;10.106;2022-12-29T14:44:12;94923.00;;;11.90
30765;BMP180;494;48.744;10.106;2022-12-29T14:46:56;95219.00;;;12.00
30765;BMP180;494;48.744;10.106;2022-12-29T14:49:28;94200.00;;;12.00
30765;BMP180;494;48.744;10.106;2022-12-29T14:52:21;95096.00;;;11.20
30765;BMP180;494;48.744;10.106;2022-12-29T14:54:54;95268.00;;;11.90
30765;BMP180;494;48.744;10.106;2022-12-29T14:57:39;95054.00;;;11.90
30765;BMP180;494;48.744;10.106;2022-12-29T15:00:18;95284.00;;;12.00
30765;BMP180;494;48.744;10.106;2022-12-29T15:02:59;95228.00;;;11.80
30765;BMP180;494;48.744;10.106;2022-12-29T15:05:36;95120.00;;;11.80
30765;BMP180;494;48.744;10.106;2022-12-29T15:08:08;95129.00;;;9.80
30765;BMP180;494;48.744;10.106;2022-12-29T15:10:47;95266.00;;;9.80
30765;BMP180;494;48.744;10.106;2022-12-29T15:13:23;95309.00;;;11.50
30765;BMP180;494;48.744;10.106;2022-12-29T15:15:53;94811.00;;;11.40
30765;BMP180;494;48.744;10.106;2022-12-29T15:18:25;95233.00;;;11.50
30765;BMP180;494;48.744;10.106;2022-12-29T15:20:58;94869.00;;;10.40
30765;BMP180;494;48.744;10.106;2022-12-29T15:23:32;95220.00;;;8.50